sensor_id;sensor_type;location;lat;lon;timestamp;P1;durP1;ratioP1;P2;durP2;ratioP2
11066;SDS011;29763;50.904;5.530;2022-08-19T00:00:33;16.23;;;14.93;;
11066;SDS011;29763;50.904;5.530;2022-08-19T00:03:03;15.30;;;14.20;;
11066;SDS011;29763;50.904;5.530;2022-08-19T00:05:30;15.15;;;14.05;;
11066;SDS011;29763;50.904;5.530;2022-08-19T00:07:56;16.27;;;14.90;;
11066;SDS011;29763;50.904;5.530;2022-08-19T00:10:23;15.45;;;14.20;;
11066;SDS011;29763;50.904;5.530;2022-08-19T00:12:49;16.65;;;15.38;;
11066;SDS011;29763;50.904;5.530;2022-08-19T00:15:16;16.13;;;14.75;;
11066;SDS011;29763;50.904;5.530;2022-08-19T00:17:44;16.10;;;14.80;;
11066;SDS011;29763;50.904;5.530;2022-08-19T00:20:11;15.60;;;14.40;;
11066;SDS011;29763;50.904;5.530;2022-08-19T00:22:41;15.18;;;13.88;;
11066;SDS011;29763;50.904;5.530;2022-08-19T00:25:07;15.27;;;13.98;;
11066;SDS011;29763;50.904;5.530;2022-08-19T00:27:33;15.63;;;14.52;;
11066;SDS011;29763;50.904;5.530;2022-08-19T00:29:59;15.68;;;14.38;;
11066;SDS011;29763;50.904;5.530;2022-08-19T00:32:28;15.73;;;14.45;;
11066;SDS011;29763;50.904;5.530;2022-08-19T00:34:55;17.00;;;15.60;;
11066;SDS011;29763;50.904;5.530;2022-08-19T00:37:21;16.35;;;15.05;;
11066;SDS011;29763;50.904;5.530;2022-08-19T00:39:50;16.70;;;15.20;;
11066;SDS011;29763;50.904;5.530;2022-08-19T00:42:18;16.33;;;15.13;;
11066;SDS011;29763;50.904;5.530;2022-08-19T00:44:45;17.50;;;15.90;;
11066;SDS011;29763;50.904;5.530;2022-08-19T00:47:12;17.83;;;16.50;;
11066;SDS011;29763;50.904;5.530;2022-08-19T00:49:41;18.52;;;16.92;;
11066;SDS011;29763;50.904;5.530;2022-08-19T00:52:14;17.52;;;16.02;;
11066;SDS011;29763;50.904;5.530;2022-08-19T00:54:42;17.25;;;15.85;;
11066;SDS011;29763;50.904;5.530;2022-08-19T00:57:10;19.60;;;18.08;;
11066;SDS011;29763;50.904;5.530;2022-08-19T00:59:39;20.52;;;18.98;;
11066;SDS011;29763;50.904;5.530;2022-08-19T01:02:07;19.58;;;18.08;;
11066;SDS011;29763;50.904;5.530;2022-08-19T01:04:32;20.45;;;18.92;;
11066;SDS011;29763;50.904;5.530;2022-08-19T01:06:58;20.88;;;19.27;;
11066;SDS011;29763;50.904;5.530;2022-08-19T01:09:25;21.35;;;19.75;;
11066;SDS011;29763;50.904;5.530;2022-08-19T01:11:50;21.02;;;19.33;;
11066;SDS011;29763;50.904;5.530;2022-08-19T01:14:16;19.85;;;18.33;;
11066;SDS011;29763;50.904;5.530;2022-08-19T01:16:43;20.30;;;18.60;;
11066;SDS011;29763;50.904;5.530;2022-08-19T01:19:23;22.15;;;20.25;;
11066;SDS011;29763;50.904;5.530;2022-08-19T01:22:06;23.10;;;21.30;;
11066;SDS011;29763;50.904;5.530;2022-08-19T01:24:37;23.52;;;21.52;;
11066;SDS011;29763;50.904;5.530;2022-08-19T01:27:04;22.60;;;20.80;;
11066;SDS011;29763;50.904;5.530;2022-08-19T01:29:30;23.50;;;21.60;;
11066;SDS011;29763;50.904;5.530;2022-08-19T01:31:57;23.67;;;21.75;;
11066;SDS011;29763;50.904;5.530;2022-08-19T01:34:22;21.88;;;20.17;;
11066;SDS011;29763;50.904;5.530;2022-08-19T01:36:49;21.48;;;19.67;;
11066;SDS011;29763;50.904;5.530;2022-08-19T01:39:19;23.05;;;21.25;;
11066;SDS011;29763;50.904;5.530;2022-08-19T01:41:48;24.23;;;22.20;;
11066;SDS011;29763;50.904;5.530;2022-08-19T01:44:14;25.38;;;23.27;;
11066;SDS011;29763;50.904;5.530;2022-08-19T01:46:41;23.17;;;21.27;;
11066;SDS011;29763;50.904;5.530;2022-08-19T01:49:08;23.95;;;21.90;;
11066;SDS011;29763;50.904;5.530;2022-08-19T01:51:35;25.38;;;23.05;;
11066;SDS011;29763;50.904;5.530;2022-08-19T01:54:01;21.95;;;20.25;;
11066;SDS011;29763;50.904;5.530;2022-08-19T01:56:27;21.30;;;19.60;;
11066;SDS011;29763;50.904;5.530;2022-08-19T01:58:54;23.65;;;21.75;;
11066;SDS011;29763;50.904;5.530;2022-08-19T02:01:26;23.75;;;21.63;;
11066;SDS011;29763;50.904;5.530;2022-08-19T02:03:51;23.25;;;21.35;;
11066;SDS011;29763;50.904;5.530;2022-08-19T02:06:18;21.83;;;20.08;;
11066;SDS011;29763;50.904;5.530;2022-08-19T02:08:44;23.05;;;21.15;;
11066;SDS011;29763;50.904;5.530;2022-08-19T02:11:17;22.38;;;20.50;;
11066;SDS011;29763;50.904;5.530;2022-08-19T02:13:45;21.67;;;19.88;;
11066;SDS011;29763;50.904;5.530;2022-08-19T02:16:11;21.48;;;19.77;;
11066;SDS011;29763;50.904;5.530;2022-08-19T02:18:37;21.83;;;20.00;;
11066;SDS011;29763;50.904;5.530;2022-08-19T02:21:03;21.67;;;19.98;;
11066;SDS011;29763;50.904;5.530;2022-08-19T02:23:29;19.23;;;17.63;;
11066;SDS011;29763;50.904;5.530;2022-08-19T02:25:56;18.38;;;16.98;;
11066;SDS011;29763;50.904;5.530;2022-08-19T02:28:21;19.40;;;17.75;;
11066;SDS011;29763;50.904;5.530;2022-08-19T02:30:47;19.02;;;17.63;;
11066;SDS011;29763;50.904;5.530;2022-08-19T02:33:13;20.73;;;19.13;;
11066;SDS011;29763;50.904;5.530;2022-08-19T02:35:42;20.73;;;19.02;;
11066;SDS011;29763;50.904;5.530;2022-08-19T02:38:12;20.33;;;18.63;;
11066;SDS011;29763;50.904;5.530;2022-08-19T02:40:57;20.92;;;19.30;;
11066;SDS011;29763;50.904;5.530;2022-08-19T02:43:24;22.10;;;20.17;;
11066;SDS011;29763;50.904;5.530;2022-08-19T02:45:51;23.95;;;21.85;;
11066;SDS011;29763;50.904;5.530;2022-08-19T02:48:18;22.75;;;20.90;;
11066;SDS011;29763;50.904;5.530;2022-08-19T02:50:46;23.67;;;21.58;;
11066;SDS011;29763;50.904;5.530;2022-08-19T02:53:17;25.15;;;23.05;;
11066;SDS011;29763;50.904;5.530;2022-08-19T02:55:44;23.65;;;21.58;;
11066;SDS011;29763;50.904;5.530;2022-08-19T02:58:11;25.52;;;23.35;;
11066;SDS011;29763;50.904;5.530;2022-08-19T03:00:46;25.75;;;23.52;;
11066;SDS011;29763;50.904;5.530;2022-08-19T03:03:14;24.23;;;22.17;;
11066;SDS011;29763;50.904;5.530;2022-08-19T03:05:40;25.38;;;23.27;;
11066;SDS011;29763;50.904;5.530;2022-08-19T03:08:07;25.02;;;22.92;;
11066;SDS011;29763;50.904;5.530;2022-08-19T03:10:40;27.17;;;24.85;;
11066;SDS011;29763;50.904;5.530;2022-08-19T03:13:09;28.00;;;25.70;;
11066;SDS011;29763;50.904;5.530;2022-08-19T03:15:41;27.52;;;25.13;;
11066;SDS011;29763;50.904;5.530;2022-08-19T03:18:08;27.83;;;25.52;;
11066;SDS011;29763;50.904;5.530;2022-08-19T03:20:39;28.02;;;25.70;;
11066;SDS011;29763;50.904;5.530;2022-08-19T03:23:09;26.30;;;24.10;;
11066;SDS011;29763;50.904;5.530;2022-08-19T03:25:37;28.70;;;26.20;;
11066;SDS011;29763;50.904;5.530;2022-08-19T03:28:05;28.98;;;26.42;;
11066;SDS011;29763;50.904;5.530;2022-08-19T03:30:32;30.35;;;27.65;;
11066;SDS011;29763;50.904;5.530;2022-08-19T03:32:58;29.08;;;26.48;;
11066;SDS011;29763;50.904;5.530;2022-08-19T03:35:27;27.95;;;25.45;;
11066;SDS011;29763;50.904;5.530;2022-08-19T03:37:53;26.65;;;24.38;;
11066;SDS011;29763;50.904;5.530;2022-08-19T03:40:18;25.77;;;23.58;;
11066;SDS011;29763;50.904;5.530;2022-08-19T03:42:44;26.25;;;23.95;;
11066;SDS011;29763;50.904;5.530;2022-08-19T03:45:11;24.77;;;22.58;;
11066;SDS011;29763;50.904;5.530;2022-08-19T03:47:37;27.38;;;24.80;;
11066;SDS011;29763;50.904;5.530;2022-08-19T03:50:03;26.90;;;24.38;;
11066;SDS011;29763;50.904;5.530;2022-08-19T03:52:29;26.08;;;23.77;;
11066;SDS011;29763;50.904;5.530;2022-08-19T03:54:55;25.73;;;23.52;;
11066;SDS011;29763;50.904;5.530;2022-08-19T03:57:21;26.17;;;23.77;;
11066;SDS011;29763;50.904;5.530;2022-08-19T03:59:47;26.90;;;24.50;;
11066;SDS011;29763;50.904;5.530;2022-08-19T04:02:13;28.00;;;25.48;;
11066;SDS011;29763;50.904;5.530;2022-08-19T04:04:40;29.15;;;26.65;;
11066;SDS011;29763;50.904;5.530;2022-08-19T04:07:08;29.20;;;26.63;;
11066;SDS011;29763;50.904;5.530;2022-08-19T04:09:35;29.77;;;27.10;;
11066;SDS011;29763;50.904;5.530;2022-08-19T04:12:02;30.50;;;27.70;;
11066;SDS011;29763;50.904;5.530;2022-08-19T04:14:30;29.35;;;26.75;;
11066;SDS011;29763;50.904;5.530;2022-08-19T04:16:56;27.67;;;25.10;;
11066;SDS011;29763;50.904;5.530;2022-08-19T04:19:24;27.95;;;25.33;;
11066;SDS011;29763;50.904;5.530;2022-08-19T04:21:50;29.92;;;27.23;;
11066;SDS011;29763;50.904;5.530;2022-08-19T04:24:17;30.25;;;27.30;;
11066;SDS011;29763;50.904;5.530;2022-08-19T04:26:47;29.30;;;26.67;;
11066;SDS011;29763;50.904;5.530;2022-08-19T04:29:17;29.35;;;26.65;;
11066;SDS011;29763;50.904;5.530;2022-08-19T04:31:49;28.42;;;25.75;;
11066;SDS011;29763;50.904;5.530;2022-08-19T04:34:16;27.65;;;25.05;;
11066;SDS011;29763;50.904;5.530;2022-08-19T04:36:44;27.90;;;25.40;;
11066;SDS011;29763;50.904;5.530;2022-08-19T04:39:12;27.33;;;24.92;;
11066;SDS011;29763;50.904;5.530;2022-08-19T04:41:40;28.05;;;25.35;;
11066;SDS011;29763;50.904;5.530;2022-08-19T04:44:24;27.70;;;25.23;;
11066;SDS011;29763;50.904;5.530;2022-08-19T04:46:51;27.42;;;24.90;;
11066;SDS011;29763;50.904;5.530;2022-08-19T04:49:18;31.85;;;28.85;;
11066;SDS011;29763;50.904;5.530;2022-08-19T04:51:46;31.17;;;28.08;;
11066;SDS011;29763;50.904;5.530;2022-08-19T04:54:13;30.38;;;27.40;;
11066;SDS011;29763;50.904;5.530;2022-08-19T04:56:39;31.55;;;28.27;;
11066;SDS011;29763;50.904;5.530;2022-08-19T04:59:05;31.23;;;28.17;;
11066;SDS011;29763;50.904;5.530;2022-08-19T05:01:33;32.85;;;29.35;;
11066;SDS011;29763;50.904;5.530;2022-08-19T05:04:02;34.00;;;30.50;;
11066;SDS011;29763;50.904;5.530;2022-08-19T05:06:30;36.92;;;32.97;;
11066;SDS011;29763;50.904;5.530;2022-08-19T05:08:58;33.13;;;29.80;;
11066;SDS011;29763;50.904;5.530;2022-08-19T05:11:26;32.90;;;29.65;;
11066;SDS011;29763;50.904;5.530;2022-08-19T05:13:54;32.83;;;29.63;;
11066;SDS011;29763;50.904;5.530;2022-08-19T05:16:21;33.60;;;30.30;;
11066;SDS011;29763;50.904;5.530;2022-08-19T05:18:51;32.80;;;29.55;;
11066;SDS011;29763;50.904;5.530;2022-08-19T05:21:35;35.33;;;31.50;;
11066;SDS011;29763;50.904;5.530;2022-08-19T05:24:20;35.05;;;31.17;;
11066;SDS011;29763;50.904;5.530;2022-08-19T05:26:48;36.08;;;31.45;;
11066;SDS011;29763;50.904;5.530;2022-08-19T05:29:17;35.63;;;31.92;;
11066;SDS011;29763;50.904;5.530;2022-08-19T05:31:44;31.10;;;27.98;;
11066;SDS011;29763;50.904;5.530;2022-08-19T05:34:11;31.45;;;28.30;;
11066;SDS011;29763;50.904;5.530;2022-08-19T05:36:41;32.75;;;29.48;;
11066;SDS011;29763;50.904;5.530;2022-08-19T05:39:10;33.13;;;29.52;;
11066;SDS011;29763;50.904;5.530;2022-08-19T05:41:46;36.15;;;31.58;;
11066;SDS011;29763;50.904;5.530;2022-08-19T05:44:13;36.80;;;31.40;;
11066;SDS011;29763;50.904;5.530;2022-08-19T05:46:41;35.95;;;32.08;;
11066;SDS011;29763;50.904;5.530;2022-08-19T05:49:09;33.65;;;30.05;;
11066;SDS011;29763;50.904;5.530;2022-08-19T05:51:35;31.75;;;28.55;;
11066;SDS011;29763;50.904;5.530;2022-08-19T05:54:02;30.75;;;27.17;;
11066;SDS011;29763;50.904;5.530;2022-08-19T05:56:29;31.35;;;28.08;;
11066;SDS011;29763;50.904;5.530;2022-08-19T05:58:56;30.70;;;27.67;;
11066;SDS011;29763;50.904;5.530;2022-08-19T06:01:23;31.58;;;28.40;;
11066;SDS011;29763;50.904;5.530;2022-08-19T06:03:50;33.13;;;29.33;;
11066;SDS011;29763;50.904;5.530;2022-08-19T06:06:16;33.90;;;29.88;;
11066;SDS011;29763;50.904;5.530;2022-08-19T06:08:42;38.85;;;33.85;;
11066;SDS011;29763;50.904;5.530;2022-08-19T06:13:40;47.25;;;38.17;;
11066;SDS011;29763;50.904;5.530;2022-08-19T06:16:06;44.65;;;38.20;;
11066;SDS011;29763;50.904;5.530;2022-08-19T06:18:32;46.13;;;40.20;;
11066;SDS011;29763;50.904;5.530;2022-08-19T06:20:58;46.75;;;40.58;;
11066;SDS011;29763;50.904;5.530;2022-08-19T06:23:24;49.33;;;41.17;;
11066;SDS011;29763;50.904;5.530;2022-08-19T06:25:50;46.47;;;40.53;;
11066;SDS011;29763;50.904;5.530;2022-08-19T06:28:16;47.05;;;39.28;;
11066;SDS011;29763;50.904;5.530;2022-08-19T06:30:42;46.03;;;38.88;;
11066;SDS011;29763;50.904;5.530;2022-08-19T06:33:07;42.80;;;36.85;;
11066;SDS011;29763;50.904;5.530;2022-08-19T06:35:37;43.65;;;37.65;;
11066;SDS011;29763;50.904;5.530;2022-08-19T06:38:05;41.10;;;36.45;;
11066;SDS011;29763;50.904;5.530;2022-08-19T06:40:30;41.20;;;35.75;;
11066;SDS011;29763;50.904;5.530;2022-08-19T06:42:56;39.17;;;34.22;;
11066;SDS011;29763;50.904;5.530;2022-08-19T06:45:24;38.25;;;34.17;;
11066;SDS011;29763;50.904;5.530;2022-08-19T06:47:51;40.65;;;35.08;;
11066;SDS011;29763;50.904;5.530;2022-08-19T06:50:20;40.15;;;33.72;;
11066;SDS011;29763;50.904;5.530;2022-08-19T06:52:49;38.30;;;33.53;;
11066;SDS011;29763;50.904;5.530;2022-08-19T06:55:15;38.50;;;33.50;;
11066;SDS011;29763;50.904;5.530;2022-08-19T06:57:41;37.95;;;32.22;;
11066;SDS011;29763;50.904;5.530;2022-08-19T07:00:07;37.35;;;32.33;;
11066;SDS011;29763;50.904;5.530;2022-08-19T07:02:39;37.35;;;33.33;;
11066;SDS011;29763;50.904;5.530;2022-08-19T07:05:05;34.88;;;31.20;;
11066;SDS011;29763;50.904;5.530;2022-08-19T07:07:32;32.72;;;29.23;;
11066;SDS011;29763;50.904;5.530;2022-08-19T07:09:58;34.75;;;30.95;;
11066;SDS011;29763;50.904;5.530;2022-08-19T07:12:24;34.05;;;30.42;;
11066;SDS011;29763;50.904;5.530;2022-08-19T07:14:50;35.10;;;31.25;;
11066;SDS011;29763;50.904;5.530;2022-08-19T07:17:16;34.88;;;30.48;;
11066;SDS011;29763;50.904;5.530;2022-08-19T07:19:43;32.78;;;29.27;;
11066;SDS011;29763;50.904;5.530;2022-08-19T07:22:09;33.60;;;29.45;;
11066;SDS011;29763;50.904;5.530;2022-08-19T07:24:35;32.47;;;29.08;;
11066;SDS011;29763;50.904;5.530;2022-08-19T07:27:03;31.98;;;28.25;;
11066;SDS011;29763;50.904;5.530;2022-08-19T07:29:30;32.50;;;27.50;;
11066;SDS011;29763;50.904;5.530;2022-08-19T07:31:58;30.00;;;26.80;;
11066;SDS011;29763;50.904;5.530;2022-08-19T07:34:26;30.17;;;26.95;;
11066;SDS011;29763;50.904;5.530;2022-08-19T07:36:53;27.23;;;24.30;;
11066;SDS011;29763;50.904;5.530;2022-08-19T07:39:20;30.15;;;25.73;;
11066;SDS011;29763;50.904;5.530;2022-08-19T07:41:51;26.48;;;23.65;;
11066;SDS011;29763;50.904;5.530;2022-08-19T07:44:18;26.67;;;23.40;;
11066;SDS011;29763;50.904;5.530;2022-08-19T07:46:46;26.15;;;23.20;;
11066;SDS011;29763;50.904;5.530;2022-08-19T07:49:14;25.48;;;22.90;;
11066;SDS011;29763;50.904;5.530;2022-08-19T07:51:54;29.05;;;23.25;;
11066;SDS011;29763;50.904;5.530;2022-08-19T07:54:23;27.95;;;22.90;;
11066;SDS011;29763;50.904;5.530;2022-08-19T07:56:50;25.75;;;21.65;;
11066;SDS011;29763;50.904;5.530;2022-08-19T07:59:18;24.10;;;21.08;;
11066;SDS011;29763;50.904;5.530;2022-08-19T08:01:51;23.13;;;20.65;;
11066;SDS011;29763;50.904;5.530;2022-08-19T08:04:17;22.75;;;20.45;;
11066;SDS011;29763;50.904;5.530;2022-08-19T08:13:18;22.02;;;19.55;;
11066;SDS011;29763;50.904;5.530;2022-08-19T08:15:44;21.13;;;18.95;;
11066;SDS011;29763;50.904;5.530;2022-08-19T08:18:10;18.50;;;16.70;;
11066;SDS011;29763;50.904;5.530;2022-08-19T08:20:36;18.98;;;16.23;;
11066;SDS011;29763;50.904;5.530;2022-08-19T08:23:03;17.30;;;15.13;;
11066;SDS011;29763;50.904;5.530;2022-08-19T08:25:47;19.58;;;15.15;;
11066;SDS011;29763;50.904;5.530;2022-08-19T08:28:14;16.05;;;14.50;;
11066;SDS011;29763;50.904;5.530;2022-08-19T08:30:41;18.75;;;15.95;;
11066;SDS011;29763;50.904;5.530;2022-08-19T08:33:08;17.58;;;15.60;;
11066;SDS011;29763;50.904;5.530;2022-08-19T08:35:35;16.38;;;14.63;;
11066;SDS011;29763;50.904;5.530;2022-08-19T08:38:01;18.33;;;15.10;;
11066;SDS011;29763;50.904;5.530;2022-08-19T08:45:36;16.27;;;14.57;;
11066;SDS011;29763;50.904;5.530;2022-08-19T08:51:10;14.77;;;13.27;;
11066;SDS011;29763;50.904;5.530;2022-08-19T08:54:00;14.30;;;12.82;;
11066;SDS011;29763;50.904;5.530;2022-08-19T08:56:31;13.60;;;11.63;;
11066;SDS011;29763;50.904;5.530;2022-08-19T08:58:59;14.65;;;11.85;;
11066;SDS011;29763;50.904;5.530;2022-08-19T09:01:35;13.90;;;11.68;;
11066;SDS011;29763;50.904;5.530;2022-08-19T09:04:05;15.75;;;11.73;;
11066;SDS011;29763;50.904;5.530;2022-08-19T09:06:40;12.73;;;11.52;;
11066;SDS011;29763;50.904;5.530;2022-08-19T09:12:22;12.63;;;11.10;;
11066;SDS011;29763;50.904;5.530;2022-08-19T09:15:08;12.43;;;10.68;;
11066;SDS011;29763;50.904;5.530;2022-08-19T09:17:37;10.80;;;9.73;;
11066;SDS011;29763;50.904;5.530;2022-08-19T09:20:05;13.77;;;11.05;;
11066;SDS011;29763;50.904;5.530;2022-08-19T09:22:39;16.20;;;12.23;;
11066;SDS011;29763;50.904;5.530;2022-08-19T09:25:09;13.35;;;11.98;;
11066;SDS011;29763;50.904;5.530;2022-08-19T09:27:36;14.63;;;12.50;;
11066;SDS011;29763;50.904;5.530;2022-08-19T09:30:05;13.07;;;11.70;;
11066;SDS011;29763;50.904;5.530;2022-08-19T09:32:32;16.05;;;12.32;;
11066;SDS011;29763;50.904;5.530;2022-08-19T09:34:59;16.10;;;12.90;;
11066;SDS011;29763;50.904;5.530;2022-08-19T09:37:25;14.10;;;12.05;;
11066;SDS011;29763;50.904;5.530;2022-08-19T09:39:51;15.73;;;12.80;;
11066;SDS011;29763;50.904;5.530;2022-08-19T09:42:17;14.75;;;13.13;;
11066;SDS011;29763;50.904;5.530;2022-08-19T09:44:44;14.23;;;12.73;;
11066;SDS011;29763;50.904;5.530;2022-08-19T09:47:10;14.20;;;12.50;;
11066;SDS011;29763;50.904;5.530;2022-08-19T09:49:37;14.35;;;12.85;;
11066;SDS011;29763;50.904;5.530;2022-08-19T09:52:04;13.70;;;10.93;;
11066;SDS011;29763;50.904;5.530;2022-08-19T09:54:32;13.93;;;12.52;;
11066;SDS011;29763;50.904;5.530;2022-08-19T09:56:59;14.48;;;12.10;;
11066;SDS011;29763;50.904;5.530;2022-08-19T09:59:27;16.30;;;14.60;;
11066;SDS011;29763;50.904;5.530;2022-08-19T10:01:57;15.88;;;14.18;;
11066;SDS011;29763;50.904;5.530;2022-08-19T10:04:22;16.98;;;13.43;;
11066;SDS011;29763;50.904;5.530;2022-08-19T10:07:08;14.85;;;13.35;;
11066;SDS011;29763;50.904;5.530;2022-08-19T10:09:34;15.00;;;13.50;;
11066;SDS011;29763;50.904;5.530;2022-08-19T10:12:00;12.85;;;11.10;;
11066;SDS011;29763;50.904;5.530;2022-08-19T10:14:27;13.35;;;11.95;;
11066;SDS011;29763;50.904;5.530;2022-08-19T10:16:53;13.85;;;11.85;;
11066;SDS011;29763;50.904;5.530;2022-08-19T10:19:19;11.70;;;10.60;;
11066;SDS011;29763;50.904;5.530;2022-08-19T10:21:47;12.63;;;10.25;;
11066;SDS011;29763;50.904;5.530;2022-08-19T10:24:13;9.30;;;8.43;;
11066;SDS011;29763;50.904;5.530;2022-08-19T10:26:39;7.88;;;6.82;;
11066;SDS011;29763;50.904;5.530;2022-08-19T10:29:11;8.43;;;7.50;;
11066;SDS011;29763;50.904;5.530;2022-08-19T10:31:37;7.50;;;6.70;;
11066;SDS011;29763;50.904;5.530;2022-08-19T10:34:03;7.18;;;6.47;;
11066;SDS011;29763;50.904;5.530;2022-08-19T10:36:33;7.70;;;6.85;;
11066;SDS011;29763;50.904;5.530;2022-08-19T10:39:02;7.50;;;6.63;;
11066;SDS011;29763;50.904;5.530;2022-08-19T10:41:31;7.72;;;7.10;;
11066;SDS011;29763;50.904;5.530;2022-08-19T10:43:59;8.48;;;7.07;;
11066;SDS011;29763;50.904;5.530;2022-08-19T10:46:30;8.02;;;7.07;;
11066;SDS011;29763;50.904;5.530;2022-08-19T10:48:58;10.10;;;6.55;;
11066;SDS011;29763;50.904;5.530;2022-08-19T10:51:26;7.53;;;6.57;;
11066;SDS011;29763;50.904;5.530;2022-08-19T10:54:10;6.68;;;6.00;;
11066;SDS011;29763;50.904;5.530;2022-08-19T10:56:36;6.90;;;6.30;;
11066;SDS011;29763;50.904;5.530;2022-08-19T10:59:25;7.82;;;5.80;;
11066;SDS011;29763;50.904;5.530;2022-08-19T11:01:53;6.20;;;5.60;;
11066;SDS011;29763;50.904;5.530;2022-08-19T11:04:24;6.32;;;5.60;;
11066;SDS011;29763;50.904;5.530;2022-08-19T11:06:49;6.93;;;6.07;;
11066;SDS011;29763;50.904;5.530;2022-08-19T11:09:17;7.45;;;6.50;;
11066;SDS011;29763;50.904;5.530;2022-08-19T11:11:45;7.07;;;5.22;;
11066;SDS011;29763;50.904;5.530;2022-08-19T11:14:13;4.57;;;4.18;;
11066;SDS011;29763;50.904;5.530;2022-08-19T11:16:41;5.40;;;4.90;;
11066;SDS011;29763;50.904;5.530;2022-08-19T11:19:07;6.00;;;5.15;;
11066;SDS011;29763;50.904;5.530;2022-08-19T11:21:39;6.35;;;5.07;;
11066;SDS011;29763;50.904;5.530;2022-08-19T11:24:08;6.15;;;4.65;;
11066;SDS011;29763;50.904;5.530;2022-08-19T11:26:36;6.07;;;4.55;;
11066;SDS011;29763;50.904;5.530;2022-08-19T11:29:03;5.45;;;4.95;;
11066;SDS011;29763;50.904;5.530;2022-08-19T11:31:32;5.90;;;5.15;;
11066;SDS011;29763;50.904;5.530;2022-08-19T11:33:59;8.15;;;4.10;;
11066;SDS011;29763;50.904;5.530;2022-08-19T11:36:28;5.65;;;4.10;;
11066;SDS011;29763;50.904;5.530;2022-08-19T11:38:54;5.55;;;4.25;;
11066;SDS011;29763;50.904;5.530;2022-08-19T11:41:21;6.30;;;3.83;;
11066;SDS011;29763;50.904;5.530;2022-08-19T11:43:48;4.82;;;3.72;;
11066;SDS011;29763;50.904;5.530;2022-08-19T11:46:20;6.68;;;3.90;;
11066;SDS011;29763;50.904;5.530;2022-08-19T11:48:47;4.65;;;4.15;;
11066;SDS011;29763;50.904;5.530;2022-08-19T11:51:15;5.15;;;4.50;;
11066;SDS011;29763;50.904;5.530;2022-08-19T11:53:43;5.30;;;4.30;;
11066;SDS011;29763;50.904;5.530;2022-08-19T11:56:10;4.43;;;4.13;;
11066;SDS011;29763;50.904;5.530;2022-08-19T11:58:37;5.13;;;4.60;;
11066;SDS011;29763;50.904;5.530;2022-08-19T12:01:13;6.35;;;4.75;;
11066;SDS011;29763;50.904;5.530;2022-08-19T12:03:42;8.50;;;4.72;;
11066;SDS011;29763;50.904;5.530;2022-08-19T12:06:11;4.78;;;4.13;;
11066;SDS011;29763;50.904;5.530;2022-08-19T12:08:38;4.68;;;4.28;;
11066;SDS011;29763;50.904;5.530;2022-08-19T12:11:05;5.15;;;3.92;;
11066;SDS011;29763;50.904;5.530;2022-08-19T12:13:33;5.30;;;4.40;;
11066;SDS011;29763;50.904;5.530;2022-08-19T12:16:00;5.85;;;4.20;;
11066;SDS011;29763;50.904;5.530;2022-08-19T12:18:31;5.30;;;4.68;;
11066;SDS011;29763;50.904;5.530;2022-08-19T12:20:57;6.03;;;4.03;;
11066;SDS011;29763;50.904;5.530;2022-08-19T12:23:26;3.75;;;3.45;;
11066;SDS011;29763;50.904;5.530;2022-08-19T12:25:51;5.93;;;4.05;;
11066;SDS011;29763;50.904;5.530;2022-08-19T12:28:22;5.03;;;4.05;;
11066;SDS011;29763;50.904;5.530;2022-08-19T12:30:50;4.55;;;4.15;;
11066;SDS011;29763;50.904;5.530;2022-08-19T12:33:16;4.00;;;3.65;;
11066;SDS011;29763;50.904;5.530;2022-08-19T12:35:43;4.75;;;4.10;;
11066;SDS011;29763;50.904;5.530;2022-08-19T12:38:12;3.80;;;3.50;;
11066;SDS011;29763;50.904;5.530;2022-08-19T12:40:39;5.88;;;4.00;;
11066;SDS011;29763;50.904;5.530;2022-08-19T12:43:06;4.38;;;3.85;;
11066;SDS011;29763;50.904;5.530;2022-08-19T12:45:32;4.40;;;3.80;;
11066;SDS011;29763;50.904;5.530;2022-08-19T12:47:57;4.40;;;4.00;;
11066;SDS011;29763;50.904;5.530;2022-08-19T12:50:24;4.65;;;4.07;;
11066;SDS011;29763;50.904;5.530;2022-08-19T12:52:50;4.93;;;4.30;;
11066;SDS011;29763;50.904;5.530;2022-08-19T12:55:16;7.07;;;3.83;;
11066;SDS011;29763;50.904;5.530;2022-08-19T12:57:44;5.70;;;4.20;;
11066;SDS011;29763;50.904;5.530;2022-08-19T13:00:11;5.18;;;4.68;;
11066;SDS011;29763;50.904;5.530;2022-08-19T13:02:40;4.45;;;4.05;;
11066;SDS011;29763;50.904;5.530;2022-08-19T13:05:10;5.32;;;4.22;;
11066;SDS011;29763;50.904;5.530;2022-08-19T13:07:41;5.78;;;4.80;;
11066;SDS011;29763;50.904;5.530;2022-08-19T13:10:09;6.40;;;4.88;;
11066;SDS011;29763;50.904;5.530;2022-08-19T13:12:37;9.38;;;5.60;;
11066;SDS011;29763;50.904;5.530;2022-08-19T13:15:04;5.88;;;5.25;;
11066;SDS011;29763;50.904;5.530;2022-08-19T13:17:30;7.25;;;4.90;;
11066;SDS011;29763;50.904;5.530;2022-08-19T13:19:58;5.13;;;4.63;;
11066;SDS011;29763;50.904;5.530;2022-08-19T13:22:24;5.25;;;4.75;;
11066;SDS011;29763;50.904;5.530;2022-08-19T13:24:50;5.07;;;4.30;;
11066;SDS011;29763;50.904;5.530;2022-08-19T13:27:16;4.70;;;4.20;;
11066;SDS011;29763;50.904;5.530;2022-08-19T13:29:41;7.07;;;4.40;;
11066;SDS011;29763;50.904;5.530;2022-08-19T13:32:26;5.28;;;3.90;;
11066;SDS011;29763;50.904;5.530;2022-08-19T13:35:10;5.32;;;4.47;;
11066;SDS011;29763;50.904;5.530;2022-08-19T13:37:37;5.50;;;4.45;;
11066;SDS011;29763;50.904;5.530;2022-08-19T13:40:10;5.25;;;4.78;;
11066;SDS011;29763;50.904;5.530;2022-08-19T13:42:47;5.90;;;4.80;;
11066;SDS011;29763;50.904;5.530;2022-08-19T13:45:15;5.38;;;4.90;;
11066;SDS011;29763;50.904;5.530;2022-08-19T13:47:44;6.15;;;4.40;;
11066;SDS011;29763;50.904;5.530;2022-08-19T13:50:19;6.07;;;4.57;;
11066;SDS011;29763;50.904;5.530;2022-08-19T13:52:47;6.03;;;3.90;;
11066;SDS011;29763;50.904;5.530;2022-08-19T13:55:13;4.57;;;3.95;;
11066;SDS011;29763;50.904;5.530;2022-08-19T13:57:40;6.50;;;4.20;;
11066;SDS011;29763;50.904;5.530;2022-08-19T14:02:35;3.90;;;3.50;;
11066;SDS011;29763;50.904;5.530;2022-08-19T14:05:03;3.97;;;3.40;;
11066;SDS011;29763;50.904;5.530;2022-08-19T14:07:31;5.32;;;3.45;;
11066;SDS011;29763;50.904;5.530;2022-08-19T14:09:57;3.70;;;3.40;;
11066;SDS011;29763;50.904;5.530;2022-08-19T14:12:22;4.80;;;3.40;;
11066;SDS011;29763;50.904;5.530;2022-08-19T14:14:48;3.47;;;3.17;;
11066;SDS011;29763;50.904;5.530;2022-08-19T14:17:14;4.32;;;3.13;;
11066;SDS011;29763;50.904;5.530;2022-08-19T14:19:40;3.83;;;2.85;;
11066;SDS011;29763;50.904;5.530;2022-08-19T14:22:06;4.32;;;3.58;;
11066;SDS011;29763;50.904;5.530;2022-08-19T14:24:32;4.13;;;3.08;;
11066;SDS011;29763;50.904;5.530;2022-08-19T14:26:58;3.08;;;2.78;;
11066;SDS011;29763;50.904;5.530;2022-08-19T14:29:25;2.85;;;2.58;;
11066;SDS011;29763;50.904;5.530;2022-08-19T14:31:52;3.08;;;2.88;;
11066;SDS011;29763;50.904;5.530;2022-08-19T14:34:18;3.63;;;2.88;;
11066;SDS011;29763;50.904;5.530;2022-08-19T14:36:44;2.88;;;2.50;;
11066;SDS011;29763;50.904;5.530;2022-08-19T14:39:10;3.10;;;2.47;;
11066;SDS011;29763;50.904;5.530;2022-08-19T14:41:36;2.58;;;2.33;;
11066;SDS011;29763;50.904;5.530;2022-08-19T14:44:06;3.67;;;2.70;;
11066;SDS011;29763;50.904;5.530;2022-08-19T14:46:31;3.92;;;2.80;;
11066;SDS011;29763;50.904;5.530;2022-08-19T14:49:00;2.80;;;2.60;;
11066;SDS011;29763;50.904;5.530;2022-08-19T14:51:26;6.40;;;3.50;;
11066;SDS011;29763;50.904;5.530;2022-08-19T14:53:52;3.55;;;2.53;;
11066;SDS011;29763;50.904;5.530;2022-08-19T14:56:21;2.65;;;2.45;;